Tarrant West's Hourly Summary for Thursday, July 5, 2018
Hour Temp
(f)
RH
(%)
Solar Rad.
(MJ/m2)
Rainfall
(in)
Wind
(mph)
7/5/2018 12:00 AM 76 75 0 0 9.21
7/5/2018 1:00 AM 75 75 0 0 8.16
7/5/2018 2:00 AM 73 79 0 0 3.71
7/5/2018 3:00 AM 72 81 0 0 3.69
7/5/2018 4:00 AM 72 82 0 0 4.13
7/5/2018 5:00 AM 71 85 0 0 2.62
7/5/2018 6:00 AM 71 86 0.01 0 1.97
7/5/2018 7:00 AM 73 82 0.21 0 3.17
7/5/2018 8:00 AM 74 79 0.48 0 4.36
7/5/2018 9:00 AM 77 69 1.41 0 4.8
7/5/2018 10:00 AM 81 61 2.18 0 4.45
7/5/2018 11:00 AM 83 54 2.63 0 5.43
7/5/2018 12:00 PM 86 47 3.09 0 6.35
7/5/2018 1:00 PM 89 42 3.29 0 7.73
7/5/2018 2:00 PM 90 40 2.55 0 6.8
7/5/2018 3:00 PM 92 37 2.26 0 5.79
7/5/2018 4:00 PM 93 35 2.37 0 5.28
7/5/2018 5:00 PM 93 33 1.7 0 5.59
7/5/2018 6:00 PM 94 33 1.19 0 4.65
7/5/2018 7:00 PM 93 35 0.54 0 5.54
7/5/2018 8:00 PM 88 48 0.12 0 7.15
7/5/2018 9:00 PM 85 55 0 0 4.96
7/5/2018 10:00 PM 86 53 0 0 6.91
7/5/2018 11:00 PM 86 54 0 0 9.56
Data Summary 82 59 24.03 0.00 5.50